createdAt,value
2023-05-06T00:00:47.152Z,3.03
2023-05-06T00:02:57.315Z,3.37
2023-05-06T00:05:07.014Z,2.80
2023-05-06T00:07:17.398Z,2.80
2023-05-06T00:09:26.645Z,3.07
2023-05-06T00:11:35.240Z,2.40
2023-05-06T00:13:44.136Z,2.90
2023-05-06T00:15:53.362Z,2.60
2023-05-06T00:18:04.163Z,2.60
2023-05-06T00:20:14.841Z,3.20
2023-05-06T00:22:23.767Z,2.30
2023-05-06T00:24:32.794Z,2.90
2023-05-06T00:26:41.338Z,2.40
2023-05-06T00:28:49.956Z,2.80
2023-05-06T00:30:58.679Z,2.77
2023-05-06T00:33:09.420Z,2.70
2023-05-06T00:35:18.360Z,2.33
2023-05-06T00:37:27.367Z,2.50
2023-05-06T00:39:36.097Z,2.40
2023-05-06T00:41:45.062Z,3.00
2023-05-06T00:43:53.996Z,2.53
2023-05-06T00:46:03.061Z,2.43
2023-05-06T00:48:13.770Z,2.73
2023-05-06T00:50:22.582Z,2.20
2023-05-06T00:52:31.997Z,2.40
2023-05-06T00:54:40.518Z,2.30
2023-05-06T00:56:49.539Z,2.40
2023-05-06T00:58:58.299Z,2.50
2023-05-06T01:01:08.334Z,2.40
2023-05-06T01:03:19.273Z,2.30
2023-05-06T01:05:31.072Z,2.50
2023-05-06T01:07:43.572Z,2.77
2023-05-06T01:09:55.349Z,2.30
2023-05-06T01:12:08.619Z,2.30
2023-05-06T01:14:22.591Z,2.23
2023-05-06T01:16:32.679Z,2.13
2023-05-06T01:18:43.872Z,2.07
2023-05-06T01:20:53.542Z,2.20
2023-05-06T01:23:03.940Z,2.10
2023-05-06T01:25:21.442Z,2.40
2023-05-06T01:27:30.769Z,2.50
2023-05-06T01:29:40.696Z,2.50
2023-05-06T01:31:51.716Z,2.40
2023-05-06T01:34:05.773Z,2.70
2023-05-06T01:36:17.305Z,2.40
2023-05-06T01:38:31.794Z,2.50
2023-05-06T01:40:43.852Z,2.77
2023-05-06T01:42:52.388Z,2.60
2023-05-06T01:45:04.010Z,2.43
2023-05-06T01:47:14.023Z,2.40
2023-05-06T01:49:24.982Z,2.40
2023-05-06T01:51:35.369Z,2.73
2023-05-06T01:53:44.176Z,2.77
2023-05-06T01:55:55.050Z,2.47
2023-05-06T01:58:04.276Z,2.30
2023-05-06T02:00:13.546Z,2.50
2023-05-06T02:02:24.218Z,2.60
2023-05-06T02:04:33.320Z,2.63
2023-05-06T02:06:42.528Z,2.43
2023-05-06T02:08:51.581Z,2.30
2023-05-06T02:11:02.330Z,2.50
2023-05-06T02:13:12.795Z,2.30
2023-05-06T02:15:21.820Z,2.43
2023-05-06T02:17:30.878Z,2.70
2023-05-06T02:19:39.715Z,2.90
2023-05-06T02:21:48.884Z,2.83
2023-05-06T02:23:57.808Z,2.90
2023-05-06T02:26:08.681Z,2.43
2023-05-06T02:28:17.758Z,2.40
2023-05-06T02:30:26.766Z,2.30
2023-05-06T02:32:36.455Z,2.50
2023-05-06T02:34:45.064Z,2.30
2023-05-06T02:36:54.509Z,2.67
2023-05-06T02:39:03.968Z,2.03
2023-05-06T02:41:14.152Z,2.50
2023-05-06T02:43:23.262Z,2.50
2023-05-06T02:45:32.183Z,2.30
2023-05-06T02:47:41.138Z,2.07
2023-05-06T02:49:50.108Z,2.60
2023-05-06T02:51:58.700Z,2.27
2023-05-06T02:54:07.296Z,2.20
2023-05-06T02:56:17.714Z,2.30
2023-05-06T02:58:26.648Z,2.07
2023-05-06T03:00:35.634Z,2.43
2023-05-06T03:02:44.657Z,2.27
2023-05-06T03:04:53.447Z,2.50
2023-05-06T03:07:02.164Z,2.40
2023-05-06T03:09:11.383Z,2.50
2023-05-06T03:11:22.075Z,3.37
2023-05-06T03:13:30.536Z,3.30
2023-05-06T03:15:39.436Z,2.83
2023-05-06T03:17:48.951Z,2.67
2023-05-06T03:19:57.483Z,3.10
2023-05-06T03:22:06.659Z,2.60
2023-05-06T03:24:15.247Z,2.43
2023-05-06T03:26:25.890Z,2.50
2023-05-06T03:28:34.993Z,2.57
2023-05-06T03:30:43.587Z,2.73
2023-05-06T03:32:52.510Z,2.67
2023-05-06T03:35:01.226Z,2.90
2023-05-06T03:37:10.237Z,2.67
2023-05-06T03:39:19.066Z,2.87
2023-05-06T03:41:29.902Z,2.50
2023-05-06T03:43:38.580Z,2.60
2023-05-06T03:45:48.455Z,2.43
2023-05-06T03:47:58.439Z,3.03
2023-05-06T03:50:08.115Z,2.53
2023-05-06T03:52:17.120Z,2.83
2023-05-06T03:54:25.802Z,2.30
2023-05-06T03:56:36.231Z,2.13
2023-05-06T03:58:44.996Z,2.60
2023-05-06T04:00:53.988Z,2.63
2023-05-06T04:03:02.967Z,2.67
2023-05-06T04:05:12.058Z,2.67
2023-05-06T04:07:21.259Z,2.33
2023-05-06T04:09:30.147Z,2.57
2023-05-06T04:11:40.863Z,2.40
2023-05-06T04:13:49.672Z,2.37
2023-05-06T04:15:58.894Z,2.70
2023-05-06T04:18:08.725Z,2.50
2023-05-06T04:20:17.466Z,2.67
2023-05-06T04:22:26.366Z,2.10
2023-05-06T04:24:35.055Z,2.57
2023-05-06T04:26:45.336Z,2.47
2023-05-06T04:28:54.332Z,2.10
2023-05-06T04:31:03.542Z,2.27
2023-05-06T04:33:12.678Z,2.23
2023-05-06T04:35:21.854Z,2.03
2023-05-06T04:37:31.042Z,2.10
2023-05-06T04:39:40.056Z,2.20
2023-05-06T04:41:50.438Z,2.30
2023-05-06T04:43:59.462Z,1.87
2023-05-06T04:46:08.434Z,2.43
2023-05-06T04:48:18.689Z,2.00
2023-05-06T04:50:27.200Z,1.97
2023-05-06T04:52:36.361Z,2.50
2023-05-06T04:54:46.823Z,2.30
2023-05-06T04:56:57.523Z,3.17
2023-05-06T04:59:06.269Z,3.47
2023-05-06T05:01:15.768Z,4.47
2023-05-06T05:03:24.545Z,3.77
2023-05-06T05:05:34.180Z,3.63
2023-05-06T05:07:43.023Z,4.17
2023-05-06T05:09:51.915Z,3.43
2023-05-06T05:12:03.368Z,3.10
2023-05-06T05:14:12.248Z,2.90
2023-05-06T05:16:21.328Z,3.17
2023-05-06T05:18:30.840Z,2.20
2023-05-06T05:20:39.693Z,2.40
2023-05-06T05:22:48.653Z,2.20
2023-05-06T05:24:57.702Z,2.00
2023-05-06T05:27:08.542Z,2.10
2023-05-06T05:29:17.308Z,1.80
2023-05-06T05:31:25.943Z,2.00
2023-05-06T05:33:34.912Z,2.17
2023-05-06T05:35:44.033Z,1.80
2023-05-06T05:37:53.221Z,1.77
2023-05-06T05:40:01.873Z,1.20
2023-05-06T05:42:12.569Z,1.00
2023-05-06T05:44:21.167Z,1.20
2023-05-06T05:46:30.139Z,1.07
2023-05-06T05:48:39.830Z,1.03
2023-05-06T05:50:49.650Z,1.10
2023-05-06T05:52:58.361Z,1.40
2023-05-06T05:55:07.990Z,1.00
2023-05-06T05:57:18.473Z,0.80
2023-05-06T05:59:27.571Z,0.80
2023-05-06T06:01:37.388Z,1.10
2023-05-06T06:03:46.183Z,1.10
2023-05-06T06:05:56.019Z,1.00
2023-05-06T06:08:05.570Z,1.00
2023-05-06T06:10:15.945Z,0.80
2023-05-06T06:12:26.521Z,0.80
2023-05-06T06:14:35.549Z,0.70
2023-05-06T06:16:44.310Z,0.83
2023-05-06T06:18:53.825Z,0.80
2023-05-06T06:21:02.934Z,0.83
2023-05-06T06:23:11.478Z,1.00
2023-05-06T06:25:21.566Z,1.20
2023-05-06T06:27:32.236Z,1.10
2023-05-06T06:29:41.178Z,1.17
2023-05-06T06:31:49.994Z,1.30
2023-05-06T06:33:58.810Z,0.93
2023-05-06T06:36:08.296Z,1.10
2023-05-06T06:38:17.065Z,1.20
2023-05-06T06:40:26.497Z,1.10
2023-05-06T06:42:36.876Z,1.17
2023-05-06T06:44:46.142Z,0.93
2023-05-06T06:46:54.692Z,1.20
2023-05-06T06:49:03.885Z,1.37
2023-05-06T06:51:12.837Z,1.00
2023-05-06T06:53:22.510Z,1.07
2023-05-06T06:55:31.037Z,1.13
2023-05-06T06:57:41.751Z,1.13
2023-05-06T06:59:52.889Z,1.07
2023-05-06T07:02:01.772Z,1.13
2023-05-06T07:04:10.819Z,1.13
2023-05-06T07:06:20.007Z,0.90
2023-05-06T07:08:28.722Z,1.10
2023-05-06T07:10:37.261Z,1.10
2023-05-06T07:12:47.455Z,1.00
2023-05-06T07:14:56.744Z,1.00
2023-05-06T07:17:05.614Z,1.00
2023-05-06T07:19:14.538Z,1.00
2023-05-06T07:21:23.603Z,0.90
2023-05-06T07:23:32.716Z,1.00
2023-05-06T07:25:41.418Z,1.00
2023-05-06T07:27:51.595Z,0.80
2023-05-06T07:30:00.534Z,0.87
2023-05-06T07:32:09.412Z,0.90
2023-05-06T07:34:18.728Z,0.80
2023-05-06T07:36:28.820Z,0.87
2023-05-06T07:38:37.631Z,1.00
2023-05-06T07:40:46.614Z,1.07
2023-05-06T07:42:57.168Z,1.00
2023-05-06T07:45:06.828Z,1.00
2023-05-06T07:47:19.566Z,0.80
2023-05-06T07:49:30.966Z,0.80
2023-05-06T07:51:40.585Z,0.93
2023-05-06T07:53:49.204Z,1.00
2023-05-06T07:56:02.359Z,0.90
2023-05-06T07:58:13.061Z,1.00
2023-05-06T08:00:21.677Z,1.07
2023-05-06T08:02:32.190Z,0.80
2023-05-06T08:04:41.113Z,0.90
2023-05-06T08:06:50.416Z,1.00
2023-05-06T08:08:59.056Z,1.00
2023-05-06T08:11:08.112Z,0.90
2023-05-06T08:13:18.921Z,0.90
2023-05-06T08:15:28.223Z,1.10
2023-05-06T08:17:37.343Z,0.93
2023-05-06T08:19:46.468Z,1.10
2023-05-06T08:21:55.095Z,0.90
2023-05-06T08:24:04.096Z,1.10
2023-05-06T08:26:13.060Z,0.90
2023-05-06T08:28:25.195Z,0.97
2023-05-06T08:30:34.261Z,1.00
2023-05-06T08:32:43.331Z,1.10
2023-05-06T08:34:52.430Z,1.10
2023-05-06T08:37:01.414Z,0.90
2023-05-06T08:39:10.103Z,0.90
2023-05-06T08:41:20.280Z,1.03
2023-05-06T08:43:32.181Z,1.10
2023-05-06T08:45:41.197Z,1.00
2023-05-06T08:47:50.589Z,0.97
2023-05-06T08:49:59.572Z,1.10
2023-05-06T08:52:08.638Z,1.10
2023-05-06T08:54:17.808Z,1.10
2023-05-06T08:56:30.360Z,1.00
2023-05-06T08:58:41.159Z,1.00
2023-05-06T09:00:50.443Z,1.10
2023-05-06T09:02:59.668Z,1.20
2023-05-06T09:05:09.555Z,1.20
2023-05-06T09:07:18.770Z,1.30
2023-05-06T09:09:27.763Z,1.00
2023-05-06T09:11:39.042Z,1.10
2023-05-06T09:13:49.631Z,0.97
2023-05-06T09:15:58.169Z,0.80
2023-05-06T09:18:07.723Z,1.00
2023-05-06T09:20:16.601Z,1.20
2023-05-06T09:22:25.496Z,1.10
2023-05-06T09:24:34.258Z,1.20
2023-05-06T09:26:43.844Z,1.00
2023-05-06T09:28:54.970Z,1.10
2023-05-06T09:31:03.842Z,1.20
2023-05-06T09:33:13.033Z,0.80
2023-05-06T09:35:22.734Z,1.30
2023-05-06T09:37:31.700Z,1.00
2023-05-06T09:39:40.968Z,1.00
2023-05-06T09:41:49.513Z,1.00
2023-05-06T09:43:59.909Z,1.27
2023-05-06T09:46:09.044Z,1.00
2023-05-06T09:48:18.001Z,1.00
2023-05-06T09:50:27.415Z,0.80
2023-05-06T09:52:36.350Z,0.97
2023-05-06T09:54:46.854Z,1.37
2023-05-06T09:56:59.274Z,1.20
2023-05-06T09:59:11.637Z,1.00
2023-05-06T10:01:32.767Z,1.20
2023-05-06T10:03:44.882Z,1.30
2023-05-06T10:05:54.776Z,1.20
2023-05-06T10:08:04.391Z,1.10
2023-05-06T10:10:13.505Z,1.10
2023-05-06T10:12:22.423Z,1.10
2023-05-06T10:14:32.883Z,1.20
2023-05-06T10:16:41.727Z,1.00
2023-05-06T10:18:51.675Z,1.10
2023-05-06T10:21:01.737Z,0.90
2023-05-06T10:23:12.571Z,0.97
2023-05-06T10:25:26.410Z,1.13
2023-05-06T10:27:37.904Z,1.10
2023-05-06T10:29:49.070Z,1.00
2023-05-06T10:31:59.298Z,1.13
2023-05-06T10:34:10.247Z,1.10
2023-05-06T10:36:21.469Z,1.40
2023-05-06T10:38:31.841Z,1.07
2023-05-06T10:40:41.289Z,1.20
2023-05-06T10:42:51.335Z,1.33
2023-05-06T10:45:05.414Z,1.10
2023-05-06T10:47:14.408Z,0.90
2023-05-06T10:49:23.759Z,1.20
2023-05-06T10:51:33.402Z,1.07
2023-05-06T10:53:58.361Z,1.07
2023-05-06T10:56:10.497Z,1.00
2023-05-06T10:58:21.111Z,1.30
2023-05-06T11:00:34.448Z,1.00
2023-05-06T11:02:44.974Z,1.07
2023-05-06T11:05:02.719Z,1.00
2023-05-06T11:07:13.236Z,1.27
2023-05-06T11:09:22.813Z,1.30
2023-05-06T11:11:54.467Z,1.50
2023-05-06T11:14:14.783Z,1.27
2023-05-06T11:16:38.817Z,1.20
2023-05-06T11:18:49.220Z,1.00
2023-05-06T11:21:27.302Z,1.50
2023-05-06T11:23:52.571Z,1.33
2023-05-06T11:26:02.018Z,1.20
2023-05-06T11:28:12.244Z,1.27
2023-05-06T11:30:20.843Z,1.10
2023-05-06T11:32:31.238Z,1.00
2023-05-06T11:34:41.568Z,1.20
2023-05-06T11:36:51.831Z,1.27
2023-05-06T11:39:00.520Z,1.40
2023-05-06T11:41:09.051Z,1.20
2023-05-06T11:43:18.588Z,1.07
2023-05-06T11:45:27.204Z,1.20
2023-05-06T11:47:36.111Z,1.37
2023-05-06T11:49:47.045Z,1.10
2023-05-06T11:51:57.067Z,1.27
2023-05-06T11:54:07.077Z,1.17
2023-05-06T11:56:16.678Z,1.30
2023-05-06T11:58:27.161Z,1.50
2023-05-06T12:00:37.500Z,1.40
2023-05-06T12:02:46.715Z,1.37
2023-05-06T12:04:58.510Z,0.97
2023-05-06T12:07:08.023Z,1.30
2023-05-06T12:09:17.103Z,1.30
2023-05-06T12:11:28.232Z,1.33
2023-05-06T12:13:42.924Z,1.10
2023-05-06T12:15:54.920Z,1.10
2023-05-06T12:18:04.778Z,1.20
2023-05-06T12:20:15.520Z,1.50
2023-05-06T12:22:33.521Z,1.20
2023-05-06T12:24:56.699Z,1.20
2023-05-06T12:27:14.776Z,1.30
2023-05-06T12:29:37.109Z,1.13
2023-05-06T12:31:52.253Z,1.30
2023-05-06T12:34:02.881Z,1.13
2023-05-06T12:36:25.280Z,1.30
2023-05-06T12:38:53.190Z,1.30
2023-05-06T12:41:11.113Z,1.30
2023-05-06T12:43:20.208Z,1.20
2023-05-06T12:45:31.096Z,1.13
2023-05-06T12:47:41.774Z,1.30
2023-05-06T12:49:54.590Z,1.07
2023-05-06T12:52:14.837Z,1.00
2023-05-06T12:54:34.606Z,1.30
2023-05-06T12:56:45.451Z,1.27
2023-05-06T12:59:02.096Z,1.30
2023-05-06T13:01:12.173Z,1.03
2023-05-06T13:03:27.810Z,1.40
2023-05-06T13:05:48.181Z,1.20
2023-05-06T13:08:01.027Z,1.20
2023-05-06T13:10:18.185Z,1.20
2023-05-06T13:12:27.498Z,0.80
2023-05-06T13:14:40.102Z,1.10
2023-05-06T13:16:57.552Z,1.00
2023-05-06T13:19:21.173Z,1.30
2023-05-06T13:21:35.404Z,1.20
2023-05-06T13:23:51.729Z,1.00
2023-05-06T13:26:10.700Z,1.10
2023-05-06T13:28:31.782Z,1.00
2023-05-06T13:30:49.235Z,0.97
2023-05-06T13:32:59.955Z,1.23
2023-05-06T13:35:17.659Z,1.10
2023-05-06T13:37:27.066Z,1.23
2023-05-06T13:39:44.030Z,1.20
2023-05-06T13:41:56.176Z,1.50
2023-05-06T13:44:06.513Z,1.23
2023-05-06T13:46:18.029Z,1.20
2023-05-06T13:48:31.177Z,1.30
2023-05-06T13:50:41.147Z,0.93
2023-05-06T13:52:56.956Z,1.27
2023-05-06T13:55:10.722Z,1.33
2023-05-06T13:57:28.017Z,1.30
2023-05-06T13:59:37.803Z,1.13
2023-05-06T14:01:51.197Z,1.10
2023-05-06T14:04:01.625Z,1.30
2023-05-06T14:06:14.860Z,1.40
2023-05-06T14:08:25.855Z,1.40
2023-05-06T14:10:48.216Z,1.40
2023-05-06T14:13:05.441Z,1.43
2023-05-06T14:15:19.021Z,1.30
2023-05-06T14:17:29.762Z,1.77
2023-05-06T14:19:42.029Z,1.40
2023-05-06T14:21:54.516Z,1.20
2023-05-06T14:24:12.144Z,1.37
2023-05-06T14:26:27.547Z,1.10
2023-05-06T14:28:39.836Z,1.30
2023-05-06T14:30:49.471Z,1.10
2023-05-06T14:33:08.445Z,1.33
2023-05-06T14:35:22.804Z,1.40
2023-05-06T14:37:37.033Z,1.20
2023-05-06T14:39:49.844Z,1.63
2023-05-06T14:42:11.291Z,1.63
2023-05-06T14:44:26.676Z,1.50
2023-05-06T14:46:37.237Z,1.40
2023-05-06T14:48:50.717Z,1.23
2023-05-06T14:51:12.555Z,1.30
2023-05-06T14:53:35.631Z,1.43
2023-05-06T14:55:47.585Z,1.30
2023-05-06T14:58:06.007Z,1.13
2023-05-06T15:00:19.789Z,1.30
2023-05-06T15:02:30.123Z,1.30
2023-05-06T15:04:48.436Z,1.27
2023-05-06T15:07:02.401Z,1.20
2023-05-06T15:09:14.387Z,1.50
2023-05-06T15:11:27.434Z,3.57
2023-05-06T15:13:40.463Z,1.90
2023-05-06T15:15:50.607Z,1.70
2023-05-06T15:18:02.775Z,1.40
2023-05-06T15:20:17.192Z,1.30
2023-05-06T15:22:27.373Z,1.30
2023-05-06T15:24:40.054Z,1.40
2023-05-06T15:26:58.015Z,2.30
2023-05-06T15:29:08.962Z,1.30
2023-05-06T15:31:17.847Z,1.90
2023-05-06T15:33:27.158Z,2.07
2023-05-06T15:35:35.865Z,2.00
2023-05-06T15:37:44.461Z,1.70
2023-05-06T15:39:53.594Z,1.40
2023-05-06T15:42:02.526Z,1.30
2023-05-06T15:46:24.909Z,1.50
2023-05-06T15:48:36.685Z,1.43
2023-05-06T15:50:45.551Z,1.53
2023-05-06T15:52:54.222Z,1.30
2023-05-06T15:55:03.589Z,1.30
2023-05-06T15:57:12.418Z,1.43
2023-05-06T15:59:23.092Z,1.40
2023-05-06T16:03:44.811Z,1.40
2023-05-06T16:05:54.749Z,1.43
2023-05-06T16:08:04.045Z,1.50
2023-05-06T16:10:13.514Z,1.47
2023-05-06T16:12:22.662Z,1.17
2023-05-06T16:14:32.709Z,1.57
2023-05-06T16:16:41.881Z,1.30
2023-05-06T16:18:50.894Z,1.20
2023-05-06T16:20:59.646Z,1.40
2023-05-06T16:23:08.748Z,1.60
2023-05-06T16:25:17.878Z,1.50
2023-05-06T16:27:29.026Z,1.23
2023-05-06T16:29:39.549Z,1.43
2023-05-06T16:31:48.686Z,1.17
2023-05-06T16:33:57.727Z,1.50
2023-05-06T16:36:07.768Z,1.40
2023-05-06T16:38:16.777Z,1.40
2023-05-06T16:40:26.139Z,1.20
2023-05-06T16:42:35.128Z,1.10
2023-05-06T16:44:46.444Z,1.30
2023-05-06T16:46:55.359Z,1.83
2023-05-06T16:49:04.703Z,1.30
2023-05-06T16:51:16.465Z,1.20
2023-05-06T16:53:27.830Z,1.20
2023-05-06T16:55:36.995Z,1.40
2023-05-06T16:57:45.606Z,1.37
2023-05-06T16:59:55.719Z,1.40
2023-05-06T17:02:04.927Z,1.20
2023-05-06T17:04:14.111Z,1.30
2023-05-06T17:06:24.749Z,1.40
2023-05-06T17:08:36.103Z,1.10
2023-05-06T17:10:45.573Z,1.60
2023-05-06T17:12:54.420Z,1.27
2023-05-06T17:15:05.180Z,1.20
2023-05-06T17:17:13.857Z,1.77
2023-05-06T17:19:23.199Z,1.57
2023-05-06T17:21:32.335Z,1.60
2023-05-06T17:23:41.753Z,1.50
2023-05-06T17:25:50.564Z,1.17
2023-05-06T17:27:59.500Z,1.20
2023-05-06T17:30:11.888Z,1.50
2023-05-06T17:32:21.500Z,1.20
2023-05-06T17:34:31.248Z,1.30
2023-05-06T17:36:41.457Z,1.50
2023-05-06T17:38:50.430Z,1.37
2023-05-06T17:40:59.010Z,1.23
2023-05-06T17:43:07.967Z,1.23
2023-05-06T17:45:19.022Z,1.17
2023-05-06T17:47:30.554Z,1.20
2023-05-06T17:49:39.245Z,1.30
2023-05-06T17:51:51.097Z,1.20
2023-05-06T17:53:59.762Z,1.10
2023-05-06T17:56:08.858Z,1.40
2023-05-06T17:58:17.662Z,0.90
2023-05-06T18:00:28.728Z,1.10
2023-05-06T18:02:38.336Z,1.30
2023-05-06T18:04:47.932Z,1.30
2023-05-06T18:06:57.214Z,1.20
2023-05-06T18:09:06.432Z,1.20
2023-05-06T18:11:15.466Z,1.10
2023-05-06T18:13:25.010Z,1.40
2023-05-06T18:15:35.612Z,1.37
2023-05-06T18:17:44.689Z,1.03
2023-05-06T18:19:53.575Z,1.00
2023-05-06T18:22:02.656Z,1.17
2023-05-06T18:24:16.345Z,1.10
2023-05-06T18:26:43.176Z,1.40
2023-05-06T18:28:53.234Z,1.07
2023-05-06T18:31:03.787Z,1.13
2023-05-06T18:33:12.828Z,1.13
2023-05-06T18:35:22.181Z,1.30
2023-05-06T18:37:31.262Z,1.17
2023-05-06T18:39:43.369Z,1.30
2023-05-06T18:41:52.241Z,1.40
2023-05-06T18:44:01.331Z,1.43
2023-05-06T18:46:12.047Z,1.67
2023-05-06T18:48:21.307Z,2.13
2023-05-06T18:50:30.296Z,2.47
2023-05-06T18:52:39.409Z,1.67
2023-05-06T18:54:48.443Z,1.40
2023-05-06T18:56:58.689Z,1.40
2023-05-06T18:59:09.094Z,1.27
2023-05-06T19:01:20.144Z,1.20
2023-05-06T19:03:29.164Z,1.50
2023-05-06T19:05:38.433Z,1.40
2023-05-06T19:07:47.232Z,1.87
2023-05-06T19:09:56.550Z,1.20
2023-05-06T19:12:05.258Z,1.27
2023-05-06T19:14:14.341Z,1.27
2023-05-06T19:16:24.862Z,1.53
2023-05-06T19:18:33.669Z,1.33
2023-05-06T19:20:42.667Z,1.53
2023-05-06T19:22:51.595Z,1.43
2023-05-06T19:25:00.818Z,1.80
2023-05-06T19:27:09.884Z,1.50
2023-05-06T19:29:18.915Z,1.30
2023-05-06T19:31:29.640Z,1.40
2023-05-06T19:33:38.880Z,1.40
2023-05-06T19:35:47.936Z,1.60
2023-05-06T19:37:57.154Z,1.40
2023-05-06T19:40:06.593Z,1.30
2023-05-06T19:42:15.903Z,1.53
2023-05-06T19:44:24.382Z,1.50
2023-05-06T19:46:34.533Z,1.63
2023-05-06T19:48:43.266Z,1.40
2023-05-06T19:50:53.992Z,1.20
2023-05-06T19:53:02.830Z,1.33
2023-05-06T19:55:12.756Z,1.37
2023-05-06T19:57:21.720Z,2.07
2023-05-06T19:59:31.030Z,1.53
2023-05-06T20:01:41.251Z,1.53
2023-05-06T20:03:50.029Z,1.90
2023-05-06T20:05:59.401Z,1.63
2023-05-06T20:08:11.011Z,1.60
2023-05-06T20:10:20.845Z,1.30
2023-05-06T20:12:30.351Z,1.77
2023-05-06T20:14:39.087Z,1.70
2023-05-06T20:16:49.904Z,1.70
2023-05-06T20:18:58.852Z,1.50
2023-05-06T20:21:08.506Z,1.50
2023-05-06T20:23:17.402Z,1.50
2023-05-06T20:25:27.633Z,1.73
2023-05-06T20:27:36.241Z,1.73
2023-05-06T20:29:45.213Z,1.33
2023-05-06T20:31:55.764Z,1.47
2023-05-06T20:34:04.873Z,1.70
2023-05-06T20:36:13.872Z,1.60
2023-05-06T20:38:22.634Z,1.50
2023-05-06T20:40:31.706Z,1.60
2023-05-06T20:42:40.739Z,1.60
2023-05-06T20:44:50.048Z,1.47
2023-05-06T20:47:02.178Z,1.70
2023-05-06T20:49:11.402Z,1.50
2023-05-06T20:51:20.433Z,1.43
2023-05-06T20:53:29.182Z,1.53
2023-05-06T20:55:38.441Z,1.70
2023-05-06T20:57:47.425Z,1.77
2023-05-06T20:59:56.338Z,1.60
2023-05-06T21:02:07.152Z,1.70
2023-05-06T21:04:16.721Z,1.63
2023-05-06T21:06:26.974Z,1.80
2023-05-06T21:08:35.722Z,1.73
2023-05-06T21:10:44.991Z,2.00
2023-05-06T21:12:54.025Z,1.80
2023-05-06T21:15:03.184Z,1.83
2023-05-06T21:17:13.616Z,2.00
2023-05-06T21:19:22.258Z,2.23
2023-05-06T21:21:32.879Z,1.93
2023-05-06T21:23:41.561Z,2.17
2023-05-06T21:25:50.866Z,1.90
2023-05-06T21:28:03.730Z,2.20
2023-05-06T21:30:12.527Z,2.03
2023-05-06T21:32:22.704Z,2.47
2023-05-06T21:34:32.283Z,2.10
2023-05-06T21:36:40.814Z,2.00
2023-05-06T21:38:49.936Z,2.20
2023-05-06T21:40:58.928Z,2.20
2023-05-06T21:43:07.725Z,2.03
2023-05-06T21:45:17.027Z,2.10
2023-05-06T21:47:27.837Z,2.07
2023-05-06T21:49:36.989Z,2.60
2023-05-06T21:51:45.921Z,2.50
2023-05-06T21:53:55.043Z,2.13
2023-05-06T21:56:04.602Z,1.67
2023-05-06T21:58:13.239Z,2.07
2023-05-06T22:00:23.322Z,2.07
2023-05-06T22:02:34.148Z,2.20
2023-05-06T22:04:42.989Z,2.00
2023-05-06T22:06:51.982Z,2.20
2023-05-06T22:09:00.895Z,2.10
2023-05-06T22:11:09.864Z,2.37
2023-05-06T22:13:18.913Z,2.10
2023-05-06T22:15:27.563Z,1.73
2023-05-06T22:17:38.121Z,1.70
2023-05-06T22:19:46.683Z,1.57
2023-05-06T22:21:55.953Z,1.60
2023-05-06T22:24:04.757Z,1.73
2023-05-06T22:26:13.561Z,1.40
2023-05-06T22:28:22.610Z,1.70
2023-05-06T22:30:31.505Z,1.87
2023-05-06T22:32:42.038Z,1.60
2023-05-06T22:34:51.061Z,1.63
2023-05-06T22:37:01.027Z,1.70
2023-05-06T22:39:10.170Z,1.90
2023-05-06T22:41:19.341Z,1.70
2023-05-06T22:43:28.272Z,1.67
2023-05-06T22:45:37.882Z,1.77
2023-05-06T22:47:48.439Z,1.70
2023-05-06T22:49:57.157Z,1.70
2023-05-06T22:52:06.393Z,1.70
2023-05-06T22:54:15.339Z,1.70
2023-05-06T22:56:24.835Z,1.70
2023-05-06T22:58:33.674Z,2.00
2023-05-06T23:00:43.572Z,1.80
2023-05-06T23:02:54.258Z,1.93
2023-05-06T23:05:02.984Z,1.60
2023-05-06T23:07:11.573Z,1.80
2023-05-06T23:09:20.726Z,1.70
2023-05-06T23:11:29.226Z,1.80
2023-05-06T23:13:38.189Z,1.70
2023-05-06T23:15:47.909Z,1.93
2023-05-06T23:17:57.921Z,2.50
2023-05-06T23:20:08.092Z,2.57
2023-05-06T23:22:16.984Z,2.90
2023-05-06T23:24:25.899Z,3.23
2023-05-06T23:26:34.420Z,2.70
2023-05-06T23:28:43.398Z,2.53
2023-05-06T23:30:52.435Z,2.90
2023-05-06T23:33:03.829Z,2.60
2023-05-06T23:35:12.973Z,2.63
2023-05-06T23:37:21.686Z,2.47
2023-05-06T23:39:30.418Z,3.23
2023-05-06T23:41:39.068Z,2.70
2023-05-06T23:43:48.149Z,2.07
2023-05-06T23:45:56.903Z,2.73
2023-05-06T23:48:08.456Z,2.70
2023-05-06T23:50:17.468Z,2.23
2023-05-06T23:52:27.020Z,2.60
2023-05-06T23:54:35.831Z,2.00
2023-05-06T23:56:44.911Z,2.10
2023-05-06T23:58:53.969Z,2.10
